Time;durP1;ratioP1;P1;durP2;ratioP2;P2;SDS_P1;SDS_P2;PMS_P1;PMS_P2;Temp;Humidity;BMP_temperature;BMP_pressure;BME280_temperature;BME280_humidity;BME280_pressure;Samples;Min_cycle;Max_cycle;Signal;HPM_P1;HPM_P2
2021/05/23 00:03:49;;;;;;;1.90;1.63;;;;;;;8.49;74.28;98917.38;515464;1093;116215;-63
2021/05/23 00:13:54;;;;;;;3.10;2.27;;;;;;;8.47;74.35;98919.25;515648;1098;115772;-63
2021/05/23 00:23:59;;;;;;;9.60;3.37;;;;;;;8.57;74.44;98923.91;515019;1093;117235;-63
2021/05/23 00:34:04;;;;;;;5.00;2.47;;;;;;;8.59;74.20;98935.11;515300;1093;117056;-63
2021/05/23 00:44:10;;;;;;;4.93;2.57;;;;;;;8.58;74.15;98931.64;515440;1098;115611;-63
2021/05/23 00:54:15;;;;;;;5.83;1.93;;;;;;;8.58;73.97;98942.11;515365;1098;116530;-63
2021/05/23 01:04:20;;;;;;;4.57;2.70;;;;;;;8.59;74.07;98941.17;515562;1092;115972;-62
2021/05/23 01:14:56;;;;;;;3.13;2.33;;;;;;;8.54;74.02;98938.88;514536;1092;115736;-62
2021/05/23 01:25:12;;;;;;;3.20;2.30;;;;;;;8.47;74.15;98942.80;515363;1098;116508;-63
2021/05/23 01:35:22;;;;;;;3.30;1.93;;;;;;;8.33;74.08;98946.31;515233;1098;116892;-62
2021/05/23 01:45:29;;;;;;;3.60;2.27;;;;;;;8.29;74.56;98955.31;516073;1098;115676;-63
2021/05/23 01:55:35;;;;;;;2.37;1.77;;;;;;;8.27;74.58;98954.58;516217;1093;116435;-63
2021/05/23 02:05:44;;;;;;;5.08;2.60;;;;;;;8.13;74.55;98966.73;515319;1098;116368;-62
2021/05/23 02:15:49;;;;;;;2.83;2.17;;;;;;;7.81;74.83;98961.80;515559;1098;116940;-62
2021/05/23 02:25:54;;;;;;;2.90;2.47;;;;;;;7.52;75.22;98967.05;515607;1098;116344;-62
2021/05/23 02:35:59;;;;;;;3.73;2.10;;;;;;;7.29;75.51;98964.06;515384;1098;116179;-61
2021/05/23 02:46:04;;;;;;;4.67;1.70;;;;;;;7.16;75.72;98957.91;515275;1098;115596;-61
2021/05/23 02:56:09;;;;;;;2.50;2.10;;;;;;;7.06;76.26;98962.86;514868;1098;115789;-62
2021/05/23 03:06:14;;;;;;;5.33;2.30;;;;;;;7.71;77.59;98974.58;515248;1098;116413;-63
2021/05/23 03:16:19;;;;;;;2.50;2.30;;;;;;;11.16;73.20;98968.56;515437;1098;116274;-62
2021/05/23 03:26:25;;;;;;;4.10;1.73;;;;;;;10.51;71.25;98976.87;515138;1098;115799;-63
2021/05/23 03:36:30;;;;;;;3.50;2.23;;;;;;;9.74;71.23;98980.55;515727;1093;116262;-63
2021/05/23 03:46:35;;;;;;;4.13;2.23;;;;;;;9.47;71.55;98981.55;515292;1094;115980;-63
2021/05/23 03:56:40;;;;;;;2.13;1.57;;;;;;;9.53;71.72;98988.15;515461;1098;116134;-63
2021/05/23 04:06:45;;;;;;;3.00;1.90;;;;;;;15.13;71.37;98991.69;515792;1098;115862;-62
2021/05/23 04:16:50;;;;;;;2.70;1.53;;;;;;;24.27;59.16;98979.41;516133;1098;116656;-66
2021/05/23 04:26:55;;;;;;;2.05;1.85;;;;;;;28.87;49.44;98986.88;514906;1098;116314;-63
2021/05/23 04:37:00;;;;;;;2.70;1.85;;;;;;;32.29;42.80;98995.34;516560;1098;115835;-64
2021/05/23 04:47:06;;;;;;;2.27;1.63;;;;;;;35.56;36.56;98992.89;514991;1098;115969;-62
2021/05/23 04:57:13;;;;;;;2.47;2.13;;;;;;;37.76;31.63;99002.60;515613;1098;115888;-63
2021/05/23 05:07:18;;;;;;;2.10;1.90;;;;;;;38.99;27.94;99004.59;515606;1093;116577;-63
2021/05/23 05:17:23;;;;;;;2.45;1.80;;;;;;;40.66;24.93;99001.88;515204;1098;116054;-64
2021/05/23 05:27:28;;;;;;;1.23;1.00;;;;;;;42.89;22.83;99012.67;515534;1098;116343;-63
2021/05/23 05:37:34;;;;;;;2.85;1.55;;;;;;;45.55;19.72;99035.08;515449;1093;116011;-63
2021/05/23 05:47:41;;;;;;;1.65;1.35;;;;;;;45.34;17.82;99033.21;514796;1093;115489;-62
2021/05/23 05:57:46;;;;;;;2.78;1.63;;;;;;;46.54;16.87;99036.80;515572;1093;116354;-63
2021/05/23 06:07:51;;;;;;;2.15;1.50;;;;;;;47.98;15.54;99023.97;514981;1098;115702;-62
2021/05/23 06:17:56;;;;;;;1.83;1.73;;;;;;;49.89;14.12;99030.41;514857;1098;116472;-63
2021/05/23 06:28:01;;;;;;;2.58;1.58;;;;;;;49.98;13.10;99035.72;515379;1098;116307;-63
2021/05/23 06:38:06;;;;;;;2.60;1.60;;;;;;;48.63;12.79;99043.94;515077;1098;116795;-63
2021/05/23 06:48:12;;;;;;;2.15;1.93;;;;;;;49.51;12.03;99049.80;516460;1098;115753;-64
2021/05/23 06:58:16;;;;;;;4.33;2.33;;;;;;;48.52;11.59;99063.25;515428;1098;116614;-64
2021/05/23 07:08:22;;;;;;;2.10;2.00;;;;;;;49.96;10.89;99043.67;514466;1098;115903;-64
2021/05/23 07:18:27;;;;;;;2.40;2.30;;;;;;;48.70;10.76;99046.05;515487;1097;115739;-64
2021/05/23 07:28:33;;;;;;;2.20;2.00;;;;;;;44.63;10.97;99055.38;516389;1098;115190;-64
2021/05/23 07:38:39;;;;;;;1.35;1.03;;;;;;;41.17;13.10;99066.59;514620;1092;117082;-64
2021/05/23 07:48:44;;;;;;;0.90;0.70;;;;;;;38.62;13.94;99083.11;514925;1092;116352;-63
2021/05/23 07:58:49;;;;;;;1.05;0.60;;;;;;;32.48;16.69;99095.52;497917;1098;10001223;-64
2021/05/23 08:08:54;;;;;;;1.87;0.90;;;;;;;29.07;19.66;99100.02;514492;1098;117781;-61
2021/05/23 08:18:59;;;;;;;1.73;1.00;;;;;;;25.99;21.88;99124.08;515440;1093;116720;-63
2021/05/23 08:29:05;;;;;;;0.73;0.43;;;;;;;24.55;24.18;99127.88;515156;1098;115877;-62
2021/05/23 08:39:10;;;;;;;3.35;1.15;;;;;;;24.11;25.33;99135.33;515514;1098;116194;-63
2021/05/23 08:49:18;;;;;;;1.65;0.95;;;;;;;24.09;25.84;99138.20;515791;1098;117253;-62
2021/05/23 08:59:23;;;;;;;1.20;0.70;;;;;;;23.63;26.60;99140.36;514653;1098;116930;-62
2021/05/23 09:09:28;;;;;;;1.50;0.50;;;;;;;22.67;27.75;99138.83;515588;1093;116010;-62
2021/05/23 09:19:41;;;;;;;1.97;0.70;;;;;;;21.94;28.26;99128.83;515312;1094;116550;-62
2021/05/23 09:29:46;;;;;;;2.30;0.80;;;;;;;21.44;30.14;99136.45;515346;1093;116661;-63
2021/05/23 09:39:51;;;;;;;0.83;0.57;;;;;;;21.91;29.95;99151.39;516387;1098;117189;-63
2021/05/23 09:49:56;;;;;;;2.13;0.90;;;;;;;21.88;29.81;99156.30;515225;1093;116066;-63
2021/05/23 10:00:04;;;;;;;2.17;0.77;;;;;;;22.14;29.69;99157.69;514445;1093;116909;-62
2021/05/23 10:10:12;;;;;;;1.27;0.70;;;;;;;22.16;30.05;99163.67;523632;1098;115815;-62
2021/05/23 10:20:17;;;;;;;2.47;0.97;;;;;;;21.74;30.74;99169.44;529260;1098;174140;-62
2021/05/23 10:30:24;;;;;;;1.47;0.60;;;;;;;21.68;30.79;99183.53;515283;1098;116193;-63
2021/05/23 10:40:31;;;;;;;2.17;0.60;;;;;;;21.92;31.09;99177.11;515923;1098;116135;-62
2021/05/23 10:50:38;;;;;;;3.17;0.73;;;;;;;21.71;31.10;99190.36;517100;1098;116070;-62
2021/05/23 11:00:50;;;;;;;1.93;0.63;;;;;;;21.39;30.73;99196.59;515672;1098;116207;-61
2021/05/23 11:10:56;;;;;;;4.70;0.90;;;;;;;20.75;31.43;99186.94;516533;1093;115637;-62
2021/05/23 11:21:07;;;;;;;1.13;0.63;;;;;;;21.21;31.53;99204.90;516299;1094;116377;-63
2021/05/23 11:31:21;;;;;;;1.20;0.53;;;;;;;21.13;31.34;99189.77;516464;1098;116562;-62
2021/05/23 11:41:33;;;;;;;1.93;0.40;;;;;;;20.51;32.93;99203.91;516205;1093;116153;-61
2021/05/23 11:51:38;;;;;;;2.37;0.57;;;;;;;20.05;34.44;99192.05;498042;1093;10001814;-62
2021/05/23 12:01:48;;;;;;;4.90;0.97;;;;;;;20.98;34.24;99192.36;515437;1098;116762;-62
2021/05/23 12:11:56;;;;;;;1.20;0.50;;;;;;;21.30;33.22;99186.97;514952;1098;116088;-62
2021/05/23 12:22:07;;;;;;;4.30;1.43;;;;;;;21.47;32.72;99185.01;515315;1094;116326;-63
2021/05/23 12:32:15;;;;;;;2.88;1.08;;;;;;;21.09;33.12;99193.78;514765;1098;116531;-58
2021/05/23 12:42:33;;;;;;;2.60;0.80;;;;;;;20.14;34.20;99188.36;515530;1094;115965;-60
2021/05/23 12:52:38;;;;;;;2.10;0.90;;;;;;;20.02;34.23;99182.55;515445;1098;115797;-59
2021/05/23 13:02:44;;;;;;;0.87;0.40;;;;;;;20.88;34.23;99170.41;514663;1098;116393;-60
2021/05/23 13:13:00;;;;;;;1.53;0.50;;;;;;;21.30;33.67;99172.78;515419;1093;116691;-60
2021/05/23 13:23:06;;;;;;;1.30;0.60;;;;;;;21.32;31.93;99178.80;514570;1098;116174;-59
2021/05/23 13:33:10;;;;;;;2.23;0.50;;;;;;;20.94;32.08;99195.55;515753;1093;117356;-59
2021/05/23 13:43:16;;;;;;;2.07;0.57;;;;;;;20.93;32.41;99209.91;515486;1092;116892;-58
2021/05/23 13:53:21;;;;;;;1.28;0.50;;;;;;;20.68;32.50;99213.48;514377;1093;116496;-58
2021/05/23 14:03:26;;;;;;;4.90;0.90;;;;;;;20.52;32.74;99227.71;515989;1094;116680;-59
2021/05/23 14:13:32;;;;;;;2.00;0.73;;;;;;;20.36;33.07;99228.59;515333;1098;116706;-59
2021/05/23 14:23:37;;;;;;;4.47;0.90;;;;;;;20.07;33.45;99239.82;514630;1098;116665;-58
2021/05/23 14:33:43;;;;;;;2.87;1.07;;;;;;;19.40;33.89;99245.14;515409;1098;116687;-59
2021/05/23 14:43:48;;;;;;;4.83;0.40;;;;;;;19.00;34.17;99258.19;515186;1093;116299;-58
2021/05/23 14:53:53;;;;;;;1.37;0.70;;;;;;;18.61;34.36;99259.50;514319;1098;117796;-58
2021/05/23 15:03:59;;;;;;;1.83;0.50;;;;;;;18.72;34.61;99263.69;515427;1098;116532;-59
2021/05/23 15:14:05;;;;;;;4.03;1.50;;;;;;;18.84;35.54;99271.38;515247;1093;116468;-57
2021/05/23 15:24:11;;;;;;;3.23;0.70;;;;;;;18.72;36.06;99284.14;515339;1093;116208;-59
2021/05/23 15:34:23;;;;;;;3.20;0.60;;;;;;;18.32;36.33;99289.89;514973;1093;116124;-59
2021/05/23 15:44:29;;;;;;;1.10;0.57;;;;;;;17.17;39.87;99340.09;514764;1098;115979;-63
2021/05/23 15:54:34;;;;;;;1.90;0.53;;;;;;;14.39;45.92;99400.68;514982;1098;116648;-64
2021/05/23 16:04:39;;;;;;;1.50;1.10;;;;;;;13.54;48.64;99342.45;515113;1098;115805;-60
2021/05/23 16:14:44;;;;;;;1.85;1.10;;;;;;;13.25;50.39;99335.02;514308;1093;116485;-61
2021/05/23 16:24:52;;;;;;;0.60;0.57;;;;;;;13.87;50.48;99338.03;515255;1098;117284;-60
2021/05/23 16:34:58;;;;;;;3.47;0.60;;;;;;;14.53;51.02;99337.92;515300;1093;116378;-61
2021/05/23 16:45:05;;;;;;;3.77;1.43;;;;;;;14.47;52.02;99341.92;515733;1098;116322;-62
2021/05/23 16:55:12;;;;;;;5.20;2.60;;;;;;;14.24;52.49;99354.43;515521;1098;116667;-61
2021/05/23 17:05:17;;;;;;;4.37;3.40;;;;;;;14.27;53.59;99348.88;514807;1098;116769;-61
2021/05/23 17:15:23;;;;;;;3.65;2.85;;;;;;;14.12;53.94;99365.05;515341;1098;116502;-62
2021/05/23 17:25:28;;;;;;;3.33;2.97;;;;;;;14.04;54.69;99398.33;514836;1092;116034;-62
2021/05/23 17:35:33;;;;;;;4.40;4.00;;;;;;;13.93;56.43;99410.59;514013;1093;116328;-61
2021/05/23 17:45:38;;;;;;;6.13;4.10;;;;;;;13.74;56.90;99432.36;515484;1093;116480;-63
2021/05/23 17:55:43;;;;;;;4.33;1.60;;;;;;;13.34;57.03;99443.38;515077;1093;119778;-63
2021/05/23 18:05:48;;;;;;;1.65;1.35;;;;;;;12.83;57.44;99450.77;514614;1098;116551;-63
2021/05/23 18:15:53;;;;;;;3.00;0.90;;;;;;;12.49;57.36;99462.02;514883;1098;116020;-62
2021/05/23 18:25:58;;;;;;;1.80;0.70;;;;;;;12.23;58.00;99477.95;515722;1098;115750;-64
2021/05/23 18:36:06;;;;;;;2.07;1.20;;;;;;;12.03;59.18;99498.64;515608;1098;116168;-62
2021/05/23 18:46:13;;;;;;;1.25;0.70;;;;;;;11.84;59.81;99521.95;515439;1098;115496;-64
2021/05/23 18:56:18;;;;;;;1.27;1.17;;;;;;;11.70;60.30;99542.14;514378;1093;116144;-64
2021/05/23 19:06:23;;;;;;;2.10;1.33;;;;;;;11.53;59.80;99545.11;514805;1098;116971;-63
2021/05/23 19:16:29;;;;;;;2.10;1.20;;;;;;;11.37;60.70;99546.17;515846;1098;115841;-62
2021/05/23 19:26:34;;;;;;;2.83;1.20;;;;;;;11.18;62.03;99562.33;505694;1093;10001306;-64
2021/05/23 19:36:39;;;;;;;6.37;1.17;;;;;;;10.85;63.36;99568.88;515099;1092;117869;-62
2021/05/23 19:46:47;;;;;;;3.23;1.63;;;;;;;10.41;63.83;99563.80;515221;1098;117739;-63
2021/05/23 19:56:53;;;;;;;3.00;1.67;;;;;;;10.06;64.74;99575.53;514422;1098;116122;-62
2021/05/23 20:06:58;;;;;;;4.20;1.97;;;;;;;9.70;65.74;99591.77;515149;1093;115952;-63
2021/05/23 20:17:03;;;;;;;5.37;2.77;;;;;;;9.33;66.28;99595.63;514325;1093;115559;-63
2021/05/23 20:27:10;;;;;;;6.37;3.33;;;;;;;9.04;67.01;99613.05;514938;1098;115967;-62
2021/05/23 20:37:15;;;;;;;5.55;3.50;;;;;;;8.72;67.58;99626.20;515258;1098;116353;-63
2021/05/23 20:47:21;;;;;;;5.00;4.00;;;;;;;8.41;68.50;99637.39;514092;1098;116357;-62
2021/05/23 20:57:26;;;;;;;6.27;4.40;;;;;;;8.17;68.90;99641.34;515169;1098;115915;-62
2021/05/23 21:07:33;;;;;;;4.63;3.87;;;;;;;7.83;69.17;99654.39;514838;1098;116075;-63
2021/05/23 21:17:39;;;;;;;12.03;7.87;;;;;;;7.64;70.28;99668.42;514649;1098;115950;-60
2021/05/23 21:27:44;;;;;;;14.07;10.10;;;;;;;7.40;70.71;99675.70;515098;1098;116844;-64
2021/05/23 21:37:49;;;;;;;13.47;9.10;;;;;;;7.26;71.43;99702.50;514764;1093;116161;-63
2021/05/23 21:47:54;;;;;;;14.57;9.87;;;;;;;7.10;71.57;99705.86;515647;1093;115738;-65
2021/05/23 21:58:12;;;;;;;12.73;9.93;;;;;;;7.00;71.80;99726.34;515156;1098;115966;-64
2021/05/23 22:08:17;;;;;;;10.67;8.83;;;;;;;6.90;72.58;99734.67;514438;1093;116825;-63
2021/05/23 22:18:24;;;;;;;14.40;11.00;;;;;;;6.78;72.48;99742.15;514985;1098;116015;-63
2021/05/23 22:28:29;;;;;;;13.43;10.43;;;;;;;6.67;72.25;99753.09;515642;1093;115911;-63
2021/05/23 22:38:35;;;;;;;11.77;9.30;;;;;;;6.51;72.67;99750.32;514516;1098;116277;-63
2021/05/23 22:48:41;;;;;;;12.73;8.90;;;;;;;6.39;73.03;99761.30;515162;1098;116474;-64
2021/05/23 22:58:46;;;;;;;10.17;8.23;;;;;;;6.32;73.01;99776.38;515088;1098;115782;-63
2021/05/23 23:08:51;;;;;;;9.97;7.20;;;;;;;6.23;73.77;99787.20;515233;1098;115882;-63
2021/05/23 23:18:57;;;;;;;8.23;5.47;;;;;;;6.14;74.71;99801.48;515165;1098;116098;-63
2021/05/23 23:29:03;;;;;;;8.73;6.17;;;;;;;6.03;74.18;99813.20;514768;1093;117001;-55
2021/05/23 23:39:08;;;;;;;10.87;6.20;;;;;;;5.89;74.24;99828.55;515381;1093;115702;-64
2021/05/23 23:49:13;;;;;;;7.83;5.67;;;;;;;5.79;75.03;99845.45;514932;1093;116444;-64
2021/05/23 23:59:18;;;;;;;7.27;5.53;;;;;;;5.69;74.96;99856.24;514370;1098;116190;-63
